sensor_id;sensor_type;location;lat;lon;timestamp;P1;durP1;ratioP1;P2;durP2;ratioP2
71513;SDS011;59335;46.652;21.272;2022-09-12T00:02:37;1.10;;;0.93;;
71513;SDS011;59335;46.652;21.272;2022-09-12T00:05:43;0.80;;;0.70;;
71513;SDS011;59335;46.652;21.272;2022-09-12T00:08:48;1.97;;;1.23;;
71513;SDS011;59335;46.652;21.272;2022-09-12T00:11:51;1.52;;;1.05;;
71513;SDS011;59335;46.652;21.272;2022-09-12T00:14:53;1.05;;;0.80;;
71513;SDS011;59335;46.652;21.272;2022-09-12T00:17:56;0.93;;;0.80;;
71513;SDS011;59335;46.652;21.272;2022-09-12T00:21:03;1.27;;;0.88;;
71513;SDS011;59335;46.652;21.272;2022-09-12T00:24:06;1.50;;;0.90;;
71513;SDS011;59335;46.652;21.272;2022-09-12T00:27:09;1.55;;;0.93;;
71513;SDS011;59335;46.652;21.272;2022-09-12T00:30:12;1.20;;;0.90;;
71513;SDS011;59335;46.652;21.272;2022-09-12T00:33:15;1.40;;;0.80;;
71513;SDS011;59335;46.652;21.272;2022-09-12T00:36:19;1.20;;;1.10;;
71513;SDS011;59335;46.652;21.272;2022-09-12T00:39:23;1.50;;;1.10;;
71513;SDS011;59335;46.652;21.272;2022-09-12T00:42:26;0.90;;;0.70;;
71513;SDS011;59335;46.652;21.272;2022-09-12T00:45:29;1.13;;;0.70;;
71513;SDS011;59335;46.652;21.272;2022-09-12T00:48:34;1.63;;;0.98;;
71513;SDS011;59335;46.652;21.272;2022-09-12T00:51:41;1.17;;;0.80;;
71513;SDS011;59335;46.652;21.272;2022-09-12T00:54:53;1.50;;;1.07;;
71513;SDS011;59335;46.652;21.272;2022-09-12T00:58:04;1.30;;;0.90;;
71513;SDS011;59335;46.652;21.272;2022-09-12T01:01:15;1.25;;;0.90;;
71513;SDS011;59335;46.652;21.272;2022-09-12T01:04:19;1.15;;;0.75;;
71513;SDS011;59335;46.652;21.272;2022-09-12T01:07:24;1.10;;;0.80;;
71513;SDS011;59335;46.652;21.272;2022-09-12T01:10:27;1.27;;;1.00;;
71513;SDS011;59335;46.652;21.272;2022-09-12T01:13:32;1.13;;;0.90;;
71513;SDS011;59335;46.652;21.272;2022-09-12T01:16:36;0.95;;;0.80;;
71513;SDS011;59335;46.652;21.272;2022-09-12T01:19:56;1.52;;;1.08;;
71513;SDS011;59335;46.652;21.272;2022-09-12T01:23:26;1.17;;;0.90;;
71513;SDS011;59335;46.652;21.272;2022-09-12T01:33:46;1.48;;;1.05;;
71513;SDS011;59335;46.652;21.272;2022-09-12T01:36:57;1.27;;;0.80;;
71513;SDS011;59335;46.652;21.272;2022-09-12T01:40:13;1.42;;;0.80;;
71513;SDS011;59335;46.652;21.272;2022-09-12T01:49:49;1.00;;;0.88;;
71513;SDS011;59335;46.652;21.272;2022-09-12T01:53:03;1.13;;;1.00;;
71513;SDS011;59335;46.652;21.272;2022-09-12T01:56:11;1.50;;;1.02;;
71513;SDS011;59335;46.652;21.272;2022-09-12T01:59:30;1.10;;;1.00;;
71513;SDS011;59335;46.652;21.272;2022-09-12T02:02:42;1.10;;;0.70;;
71513;SDS011;59335;46.652;21.272;2022-09-12T02:05:55;1.52;;;1.05;;
71513;SDS011;59335;46.652;21.272;2022-09-12T02:09:04;2.35;;;0.80;;
71513;SDS011;59335;46.652;21.272;2022-09-12T02:12:26;1.17;;;0.90;;
71513;SDS011;59335;46.652;21.272;2022-09-12T02:15:37;1.13;;;1.00;;
71513;SDS011;59335;46.652;21.272;2022-09-12T02:18:43;1.08;;;0.80;;
71513;SDS011;59335;46.652;21.272;2022-09-12T02:21:49;1.55;;;0.90;;
71513;SDS011;59335;46.652;21.272;2022-09-12T02:24:56;1.08;;;0.90;;
71513;SDS011;59335;46.652;21.272;2022-09-12T02:28:03;1.55;;;1.13;;
71513;SDS011;59335;46.652;21.272;2022-09-12T02:37:57;1.17;;;0.90;;
71513;SDS011;59335;46.652;21.272;2022-09-12T02:41:01;1.27;;;0.90;;
71513;SDS011;59335;46.652;21.272;2022-09-12T02:44:03;1.02;;;0.80;;
71513;SDS011;59335;46.652;21.272;2022-09-12T02:50:16;1.63;;;0.90;;
71513;SDS011;59335;46.652;21.272;2022-09-12T02:53:19;1.02;;;0.80;;
71513;SDS011;59335;46.652;21.272;2022-09-12T02:56:23;1.33;;;1.00;;
71513;SDS011;59335;46.652;21.272;2022-09-12T02:59:28;1.75;;;0.90;;
71513;SDS011;59335;46.652;21.272;2022-09-12T03:05:58;1.40;;;1.10;;
71513;SDS011;59335;46.652;21.272;2022-09-12T03:19:25;1.87;;;1.00;;
71513;SDS011;59335;46.652;21.272;2022-09-12T03:22:39;1.90;;;1.25;;
71513;SDS011;59335;46.652;21.272;2022-09-12T03:25:54;1.98;;;1.13;;
71513;SDS011;59335;46.652;21.272;2022-09-12T03:29:02;1.75;;;1.08;;
71513;SDS011;59335;46.652;21.272;2022-09-12T03:32:07;1.13;;;0.80;;
71513;SDS011;59335;46.652;21.272;2022-09-12T03:35:10;1.30;;;0.90;;
71513;SDS011;59335;46.652;21.272;2022-09-12T03:38:13;2.13;;;1.00;;
71513;SDS011;59335;46.652;21.272;2022-09-12T03:41:16;1.65;;;1.00;;
71513;SDS011;59335;46.652;21.272;2022-09-12T03:44:19;1.60;;;1.10;;
71513;SDS011;59335;46.652;21.272;2022-09-12T03:47:22;1.60;;;0.82;;
71513;SDS011;59335;46.652;21.272;2022-09-12T03:50:25;2.50;;;1.03;;
71513;SDS011;59335;46.652;21.272;2022-09-12T03:53:27;1.52;;;1.05;;
71513;SDS011;59335;46.652;21.272;2022-09-12T03:56:30;1.35;;;0.98;;
71513;SDS011;59335;46.652;21.272;2022-09-12T03:59:33;1.17;;;0.93;;
71513;SDS011;59335;46.652;21.272;2022-09-12T04:02:35;1.67;;;0.80;;
71513;SDS011;59335;46.652;21.272;2022-09-12T04:05:38;1.43;;;0.90;;
71513;SDS011;59335;46.652;21.272;2022-09-12T04:08:41;1.35;;;0.90;;
71513;SDS011;59335;46.652;21.272;2022-09-12T04:11:44;0.80;;;0.80;;
71513;SDS011;59335;46.652;21.272;2022-09-12T04:14:47;1.23;;;0.80;;
71513;SDS011;59335;46.652;21.272;2022-09-12T04:17:50;1.83;;;0.85;;
71513;SDS011;59335;46.652;21.272;2022-09-12T04:20:53;1.50;;;1.00;;
71513;SDS011;59335;46.652;21.272;2022-09-12T04:23:58;1.10;;;0.90;;
71513;SDS011;59335;46.652;21.272;2022-09-12T04:27:00;1.05;;;0.90;;
71513;SDS011;59335;46.652;21.272;2022-09-12T04:30:09;1.35;;;0.90;;
71513;SDS011;59335;46.652;21.272;2022-09-12T04:33:12;1.60;;;0.90;;
71513;SDS011;59335;46.652;21.272;2022-09-12T04:36:16;1.27;;;0.90;;
71513;SDS011;59335;46.652;21.272;2022-09-12T04:39:19;1.33;;;0.85;;
71513;SDS011;59335;46.652;21.272;2022-09-12T04:42:22;1.92;;;1.05;;
71513;SDS011;59335;46.652;21.272;2022-09-12T04:45:25;1.50;;;1.00;;
71513;SDS011;59335;46.652;21.272;2022-09-12T04:48:27;1.42;;;1.00;;
71513;SDS011;59335;46.652;21.272;2022-09-12T04:51:34;2.33;;;1.10;;
71513;SDS011;59335;46.652;21.272;2022-09-12T04:54:38;1.55;;;1.10;;
71513;SDS011;59335;46.652;21.272;2022-09-12T04:57:41;1.42;;;1.02;;
71513;SDS011;59335;46.652;21.272;2022-09-12T05:00:45;1.73;;;0.82;;
71513;SDS011;59335;46.652;21.272;2022-09-12T05:03:48;2.15;;;1.00;;
71513;SDS011;59335;46.652;21.272;2022-09-12T05:06:51;1.60;;;1.07;;
71513;SDS011;59335;46.652;21.272;2022-09-12T05:09:54;1.95;;;1.10;;
71513;SDS011;59335;46.652;21.272;2022-09-12T05:12:56;1.30;;;0.90;;
71513;SDS011;59335;46.652;21.272;2022-09-12T05:16:00;5.28;;;2.80;;
71513;SDS011;59335;46.652;21.272;2022-09-12T05:19:06;6.07;;;2.47;;
71513;SDS011;59335;46.652;21.272;2022-09-12T05:22:09;5.43;;;2.60;;
71513;SDS011;59335;46.652;21.272;2022-09-12T05:25:11;4.60;;;2.40;;
71513;SDS011;59335;46.652;21.272;2022-09-12T05:28:15;6.22;;;2.05;;
71513;SDS011;59335;46.652;21.272;2022-09-12T05:31:25;6.25;;;2.15;;
71513;SDS011;59335;46.652;21.272;2022-09-12T05:34:29;7.95;;;2.38;;
71513;SDS011;59335;46.652;21.272;2022-09-12T05:37:31;4.40;;;1.90;;
71513;SDS011;59335;46.652;21.272;2022-09-12T05:40:34;8.38;;;3.05;;
71513;SDS011;59335;46.652;21.272;2022-09-12T05:43:37;7.22;;;3.30;;
71513;SDS011;59335;46.652;21.272;2022-09-12T05:46:42;6.10;;;2.50;;
71513;SDS011;59335;46.652;21.272;2022-09-12T05:49:46;4.15;;;2.10;;
71513;SDS011;59335;46.652;21.272;2022-09-12T05:52:50;4.53;;;1.97;;
71513;SDS011;59335;46.652;21.272;2022-09-12T05:56:06;4.13;;;2.00;;
71513;SDS011;59335;46.652;21.272;2022-09-12T06:02:13;4.95;;;2.38;;
71513;SDS011;59335;46.652;21.272;2022-09-12T06:05:16;3.92;;;1.90;;
71513;SDS011;59335;46.652;21.272;2022-09-12T06:08:19;6.57;;;2.23;;
71513;SDS011;59335;46.652;21.272;2022-09-12T06:11:22;4.45;;;2.00;;
71513;SDS011;59335;46.652;21.272;2022-09-12T06:14:27;4.45;;;2.00;;
71513;SDS011;59335;46.652;21.272;2022-09-12T06:17:31;6.43;;;2.35;;
71513;SDS011;59335;46.652;21.272;2022-09-12T06:20:37;5.30;;;2.60;;
71513;SDS011;59335;46.652;21.272;2022-09-12T06:24:03;4.77;;;2.40;;
71513;SDS011;59335;46.652;21.272;2022-09-12T06:27:06;4.95;;;2.38;;
71513;SDS011;59335;46.652;21.272;2022-09-12T06:30:10;4.28;;;2.00;;
71513;SDS011;59335;46.652;21.272;2022-09-12T06:33:13;4.63;;;2.35;;
71513;SDS011;59335;46.652;21.272;2022-09-12T06:36:23;5.20;;;2.47;;
71513;SDS011;59335;46.652;21.272;2022-09-12T06:39:27;4.57;;;2.10;;
71513;SDS011;59335;46.652;21.272;2022-09-12T06:42:30;3.78;;;1.90;;
71513;SDS011;59335;46.652;21.272;2022-09-12T06:45:35;4.40;;;2.10;;
71513;SDS011;59335;46.652;21.272;2022-09-12T06:48:38;5.07;;;2.17;;
71513;SDS011;59335;46.652;21.272;2022-09-12T06:51:43;6.38;;;2.30;;
71513;SDS011;59335;46.652;21.272;2022-09-12T06:54:46;5.43;;;2.20;;
71513;SDS011;59335;46.652;21.272;2022-09-12T06:57:49;4.90;;;2.35;;
71513;SDS011;59335;46.652;21.272;2022-09-12T07:00:59;4.47;;;2.20;;
71513;SDS011;59335;46.652;21.272;2022-09-12T07:04:07;4.47;;;2.20;;
71513;SDS011;59335;46.652;21.272;2022-09-12T07:07:09;5.20;;;2.22;;
71513;SDS011;59335;46.652;21.272;2022-09-12T07:10:12;3.63;;;2.07;;
71513;SDS011;59335;46.652;21.272;2022-09-12T07:13:32;4.35;;;2.20;;
71513;SDS011;59335;46.652;21.272;2022-09-12T07:16:54;4.38;;;2.05;;
71513;SDS011;59335;46.652;21.272;2022-09-12T07:19:56;6.32;;;2.00;;
71513;SDS011;59335;46.652;21.272;2022-09-12T07:23:00;3.95;;;2.03;;
71513;SDS011;59335;46.652;21.272;2022-09-12T07:26:05;5.17;;;2.20;;
71513;SDS011;59335;46.652;21.272;2022-09-12T07:29:13;5.13;;;2.20;;
71513;SDS011;59335;46.652;21.272;2022-09-12T07:32:37;4.55;;;2.63;;
71513;SDS011;59335;46.652;21.272;2022-09-12T07:35:40;6.10;;;2.60;;
71513;SDS011;59335;46.652;21.272;2022-09-12T07:38:45;7.78;;;2.20;;
71513;SDS011;59335;46.652;21.272;2022-09-12T07:41:48;6.23;;;2.63;;
71513;SDS011;59335;46.652;21.272;2022-09-12T07:44:53;5.57;;;3.22;;
71513;SDS011;59335;46.652;21.272;2022-09-12T07:47:55;7.20;;;2.80;;
71513;SDS011;59335;46.652;21.272;2022-09-12T07:50:59;5.28;;;2.85;;
71513;SDS011;59335;46.652;21.272;2022-09-12T07:54:06;7.57;;;2.70;;
71513;SDS011;59335;46.652;21.272;2022-09-12T07:57:10;5.63;;;3.23;;
71513;SDS011;59335;46.652;21.272;2022-09-12T08:00:12;7.30;;;2.90;;
71513;SDS011;59335;46.652;21.272;2022-09-12T08:03:17;5.47;;;3.30;;
71513;SDS011;59335;46.652;21.272;2022-09-12T08:06:21;6.75;;;2.70;;
71513;SDS011;59335;46.652;21.272;2022-09-12T08:09:26;6.05;;;2.83;;
71513;SDS011;59335;46.652;21.272;2022-09-12T08:12:29;4.77;;;2.47;;
71513;SDS011;59335;46.652;21.272;2022-09-12T08:15:33;5.95;;;2.72;;
71513;SDS011;59335;46.652;21.272;2022-09-12T08:18:36;6.30;;;2.92;;
71513;SDS011;59335;46.652;21.272;2022-09-12T08:21:39;5.80;;;3.08;;
71513;SDS011;59335;46.652;21.272;2022-09-12T08:24:41;5.47;;;2.80;;
71513;SDS011;59335;46.652;21.272;2022-09-12T08:27:44;7.53;;;2.80;;
71513;SDS011;59335;46.652;21.272;2022-09-12T08:30:48;6.00;;;3.05;;
71513;SDS011;59335;46.652;21.272;2022-09-12T08:33:53;7.13;;;2.90;;
71513;SDS011;59335;46.652;21.272;2022-09-12T08:36:57;5.70;;;2.80;;
71513;SDS011;59335;46.652;21.272;2022-09-12T08:40:00;7.63;;;3.47;;
71513;SDS011;59335;46.652;21.272;2022-09-12T08:43:10;10.00;;;5.40;;
71513;SDS011;59335;46.652;21.272;2022-09-12T08:50:17;8.10;;;4.03;;
71513;SDS011;59335;46.652;21.272;2022-09-12T08:53:22;8.23;;;3.70;;
71513;SDS011;59335;46.652;21.272;2022-09-12T08:56:33;8.95;;;3.75;;
71513;SDS011;59335;46.652;21.272;2022-09-12T08:59:40;6.20;;;3.20;;
71513;SDS011;59335;46.652;21.272;2022-09-12T09:03:48;12.05;;;6.75;;
71513;SDS011;59335;46.652;21.272;2022-09-12T09:17:26;8.03;;;4.00;;
71513;SDS011;59335;46.652;21.272;2022-09-12T09:20:33;8.63;;;3.85;;
71513;SDS011;59335;46.652;21.272;2022-09-12T09:23:42;6.13;;;3.20;;
71513;SDS011;59335;46.652;21.272;2022-09-12T09:26:57;5.85;;;3.28;;
71513;SDS011;59335;46.652;21.272;2022-09-12T09:30:04;7.13;;;3.50;;
71513;SDS011;59335;46.652;21.272;2022-09-12T09:33:20;8.63;;;3.40;;
71513;SDS011;59335;46.652;21.272;2022-09-12T09:43:15;5.53;;;2.90;;
71513;SDS011;59335;46.652;21.272;2022-09-12T09:46:28;5.38;;;3.20;;
71513;SDS011;59335;46.652;21.272;2022-09-12T09:49:33;5.37;;;3.00;;
71513;SDS011;59335;46.652;21.272;2022-09-12T09:52:38;7.15;;;3.38;;
71513;SDS011;59335;46.652;21.272;2022-09-12T09:55:41;7.85;;;2.92;;
71513;SDS011;59335;46.652;21.272;2022-09-12T09:58:46;6.03;;;3.03;;
71513;SDS011;59335;46.652;21.272;2022-09-12T10:02:00;5.72;;;3.05;;
71513;SDS011;59335;46.652;21.272;2022-09-12T10:05:25;10.53;;;4.00;;
71513;SDS011;59335;46.652;21.272;2022-09-12T10:08:30;10.95;;;4.55;;
71513;SDS011;59335;46.652;21.272;2022-09-12T10:11:36;10.20;;;4.00;;
71513;SDS011;59335;46.652;21.272;2022-09-12T10:14:59;7.93;;;3.15;;
71513;SDS011;59335;46.652;21.272;2022-09-12T10:18:05;7.82;;;3.08;;
71513;SDS011;59335;46.652;21.272;2022-09-12T10:21:12;5.97;;;2.87;;
71513;SDS011;59335;46.652;21.272;2022-09-12T10:27:19;7.13;;;2.80;;
71513;SDS011;59335;46.652;21.272;2022-09-12T10:30:27;7.85;;;2.92;;
71513;SDS011;59335;46.652;21.272;2022-09-12T10:33:30;5.75;;;2.72;;
71513;SDS011;59335;46.652;21.272;2022-09-12T10:36:54;9.43;;;2.63;;
71513;SDS011;59335;46.652;21.272;2022-09-12T10:40:03;5.40;;;2.92;;
71513;SDS011;59335;46.652;21.272;2022-09-12T10:43:44;5.38;;;2.70;;
71513;SDS011;59335;46.652;21.272;2022-09-12T10:46:43;6.97;;;3.35;;
71513;SDS011;59335;46.652;21.272;2022-09-12T10:49:46;8.52;;;2.92;;
71513;SDS011;59335;46.652;21.272;2022-09-12T10:52:50;7.33;;;2.60;;
71513;SDS011;59335;46.652;21.272;2022-09-12T10:59:32;4.80;;;2.53;;
71513;SDS011;59335;46.652;21.272;2022-09-12T11:03:14;5.10;;;3.22;;
71513;SDS011;59335;46.652;21.272;2022-09-12T11:06:22;6.90;;;4.35;;
71513;SDS011;59335;46.652;21.272;2022-09-12T11:13:05;9.73;;;3.22;;
71513;SDS011;59335;46.652;21.272;2022-09-12T11:32:56;7.82;;;3.08;;
71513;SDS011;59335;46.652;21.272;2022-09-12T11:36:01;6.57;;;4.07;;
71513;SDS011;59335;46.652;21.272;2022-09-12T11:39:15;8.10;;;3.00;;
71513;SDS011;59335;46.652;21.272;2022-09-12T11:42:25;8.03;;;2.60;;
71513;SDS011;59335;46.652;21.272;2022-09-12T11:45:35;7.63;;;2.90;;
71513;SDS011;59335;46.652;21.272;2022-09-12T11:48:47;5.85;;;2.83;;
71513;SDS011;59335;46.652;21.272;2022-09-12T11:52:00;6.38;;;3.17;;
71513;SDS011;59335;46.652;21.272;2022-09-12T11:55:26;9.45;;;2.92;;
71513;SDS011;59335;46.652;21.272;2022-09-12T11:58:32;7.20;;;3.20;;
71513;SDS011;59335;46.652;21.272;2022-09-12T12:01:38;7.32;;;2.95;;
71513;SDS011;59335;46.652;21.272;2022-09-12T12:08:11;5.45;;;2.58;;
71513;SDS011;59335;46.652;21.272;2022-09-12T12:11:29;7.22;;;2.85;;
71513;SDS011;59335;46.652;21.272;2022-09-12T12:14:36;6.87;;;2.80;;
71513;SDS011;59335;46.652;21.272;2022-09-12T12:17:42;5.95;;;2.92;;
71513;SDS011;59335;46.652;21.272;2022-09-12T12:20:45;8.30;;;2.80;;
71513;SDS011;59335;46.652;21.272;2022-09-12T12:34:00;6.70;;;2.63;;
71513;SDS011;59335;46.652;21.272;2022-09-12T12:40:31;5.30;;;2.47;;
71513;SDS011;59335;46.652;21.272;2022-09-12T12:43:33;6.15;;;2.97;;
71513;SDS011;59335;46.652;21.272;2022-09-12T12:46:36;8.27;;;3.10;;
71513;SDS011;59335;46.652;21.272;2022-09-12T12:49:41;4.55;;;2.47;;
71513;SDS011;59335;46.652;21.272;2022-09-12T12:56:39;8.00;;;2.47;;
71513;SDS011;59335;46.652;21.272;2022-09-12T12:59:47;10.32;;;2.75;;
71513;SDS011;59335;46.652;21.272;2022-09-12T13:06:20;5.85;;;2.70;;
71513;SDS011;59335;46.652;21.272;2022-09-12T13:09:46;7.82;;;3.22;;
71513;SDS011;59335;46.652;21.272;2022-09-12T13:12:55;11.18;;;3.90;;
71513;SDS011;59335;46.652;21.272;2022-09-12T13:16:01;9.00;;;3.80;;
71513;SDS011;59335;46.652;21.272;2022-09-12T13:19:09;7.60;;;3.43;;
71513;SDS011;59335;46.652;21.272;2022-09-12T13:22:21;5.18;;;2.58;;
71513;SDS011;59335;46.652;21.272;2022-09-12T13:25:29;9.43;;;2.70;;
71513;SDS011;59335;46.652;21.272;2022-09-12T13:28:34;7.32;;;2.80;;
71513;SDS011;59335;46.652;21.272;2022-09-12T13:31:37;7.20;;;2.95;;
71513;SDS011;59335;46.652;21.272;2022-09-12T13:45:10;11.63;;;4.18;;
71513;SDS011;59335;46.652;21.272;2022-09-12T13:48:24;6.43;;;2.50;;
71513;SDS011;59335;46.652;21.272;2022-09-12T13:51:27;6.87;;;2.40;;
71513;SDS011;59335;46.652;21.272;2022-09-12T13:54:33;5.13;;;2.30;;
71513;SDS011;59335;46.652;21.272;2022-09-12T13:57:40;5.18;;;2.15;;
71513;SDS011;59335;46.652;21.272;2022-09-12T14:00:44;4.30;;;2.00;;
71513;SDS011;59335;46.652;21.272;2022-09-12T14:03:48;7.03;;;2.40;;
71513;SDS011;59335;46.652;21.272;2022-09-12T14:07:17;8.83;;;2.23;;
71513;SDS011;59335;46.652;21.272;2022-09-12T14:10:26;5.85;;;2.90;;
71513;SDS011;59335;46.652;21.272;2022-09-12T14:13:32;8.13;;;3.00;;
71513;SDS011;59335;46.652;21.272;2022-09-12T14:16:37;7.07;;;2.45;;
71513;SDS011;59335;46.652;21.272;2022-09-12T14:19:41;8.90;;;2.30;;
71513;SDS011;59335;46.652;21.272;2022-09-12T14:22:45;6.30;;;2.30;;
71513;SDS011;59335;46.652;21.272;2022-09-12T14:25:52;4.60;;;2.10;;
71513;SDS011;59335;46.652;21.272;2022-09-12T14:28:57;5.68;;;2.38;;
71513;SDS011;59335;46.652;21.272;2022-09-12T14:32:01;4.80;;;2.13;;
71513;SDS011;59335;46.652;21.272;2022-09-12T14:35:18;6.95;;;2.08;;
71513;SDS011;59335;46.652;21.272;2022-09-12T14:38:23;7.27;;;2.63;;
71513;SDS011;59335;46.652;21.272;2022-09-12T14:41:34;7.40;;;2.15;;
71513;SDS011;59335;46.652;21.272;2022-09-12T14:44:39;3.80;;;1.88;;
71513;SDS011;59335;46.652;21.272;2022-09-12T14:47:51;5.15;;;2.03;;
71513;SDS011;59335;46.652;21.272;2022-09-12T14:50:54;6.13;;;1.80;;
71513;SDS011;59335;46.652;21.272;2022-09-12T14:53:57;6.10;;;1.90;;
71513;SDS011;59335;46.652;21.272;2022-09-12T14:57:01;3.75;;;2.03;;
71513;SDS011;59335;46.652;21.272;2022-09-12T15:03:26;4.50;;;2.10;;
71513;SDS011;59335;46.652;21.272;2022-09-12T15:06:50;4.57;;;1.80;;
71513;SDS011;59335;46.652;21.272;2022-09-12T15:09:53;5.63;;;2.00;;
71513;SDS011;59335;46.652;21.272;2022-09-12T15:13:37;6.05;;;2.30;;
71513;SDS011;59335;46.652;21.272;2022-09-12T15:16:29;5.70;;;2.05;;
71513;SDS011;59335;46.652;21.272;2022-09-12T15:19:32;4.05;;;1.80;;
71513;SDS011;59335;46.652;21.272;2022-09-12T15:22:35;6.68;;;2.00;;
71513;SDS011;59335;46.652;21.272;2022-09-12T15:25:39;10.37;;;2.30;;
71513;SDS011;59335;46.652;21.272;2022-09-12T15:28:42;21.45;;;3.63;;
71513;SDS011;59335;46.652;21.272;2022-09-12T15:31:45;13.70;;;2.45;;
71513;SDS011;59335;46.652;21.272;2022-09-12T15:34:48;24.52;;;3.90;;
71513;SDS011;59335;46.652;21.272;2022-09-12T15:37:50;31.73;;;3.78;;
71513;SDS011;59335;46.652;21.272;2022-09-12T15:40:55;24.27;;;3.50;;
71513;SDS011;59335;46.652;21.272;2022-09-12T15:43:57;26.27;;;3.70;;
71513;SDS011;59335;46.652;21.272;2022-09-12T15:47:01;18.85;;;3.42;;
71513;SDS011;59335;46.652;21.272;2022-09-12T15:50:04;17.85;;;3.92;;
71513;SDS011;59335;46.652;21.272;2022-09-12T15:53:14;17.67;;;2.92;;
71513;SDS011;59335;46.652;21.272;2022-09-12T15:56:19;22.63;;;3.60;;
71513;SDS011;59335;46.652;21.272;2022-09-12T15:59:22;22.15;;;4.30;;
71513;SDS011;59335;46.652;21.272;2022-09-12T16:02:25;21.75;;;3.70;;
71513;SDS011;59335;46.652;21.272;2022-09-12T16:05:27;17.48;;;3.00;;
71513;SDS011;59335;46.652;21.272;2022-09-12T16:08:30;21.27;;;3.42;;
71513;SDS011;59335;46.652;21.272;2022-09-12T16:11:33;20.77;;;3.00;;
71513;SDS011;59335;46.652;21.272;2022-09-12T16:14:36;17.35;;;2.75;;
71513;SDS011;59335;46.652;21.272;2022-09-12T16:17:38;19.30;;;3.72;;
71513;SDS011;59335;46.652;21.272;2022-09-12T16:20:41;20.35;;;2.85;;
71513;SDS011;59335;46.652;21.272;2022-09-12T16:23:44;19.80;;;3.53;;
71513;SDS011;59335;46.652;21.272;2022-09-12T16:26:48;15.23;;;2.73;;
71513;SDS011;59335;46.652;21.272;2022-09-12T16:29:51;22.50;;;3.05;;
71513;SDS011;59335;46.652;21.272;2022-09-12T16:32:53;17.40;;;2.92;;
71513;SDS011;59335;46.652;21.272;2022-09-12T16:35:59;18.25;;;3.00;;
71513;SDS011;59335;46.652;21.272;2022-09-12T16:39:10;14.23;;;2.83;;
71513;SDS011;59335;46.652;21.272;2022-09-12T16:42:13;18.97;;;3.10;;
71513;SDS011;59335;46.652;21.272;2022-09-12T16:45:17;14.68;;;3.33;;
71513;SDS011;59335;46.652;21.272;2022-09-12T16:48:19;14.30;;;2.50;;
71513;SDS011;59335;46.652;21.272;2022-09-12T16:51:23;14.27;;;3.25;;
71513;SDS011;59335;46.652;21.272;2022-09-12T16:54:31;14.07;;;2.92;;
71513;SDS011;59335;46.652;21.272;2022-09-12T16:57:34;14.23;;;3.30;;
71513;SDS011;59335;46.652;21.272;2022-09-12T17:00:36;16.10;;;2.92;;
71513;SDS011;59335;46.652;21.272;2022-09-12T17:03:39;18.13;;;3.25;;
71513;SDS011;59335;46.652;21.272;2022-09-12T17:06:42;15.45;;;3.28;;
71513;SDS011;59335;46.652;21.272;2022-09-12T17:09:46;10.05;;;2.95;;
71513;SDS011;59335;46.652;21.272;2022-09-12T17:12:49;12.27;;;3.10;;
71513;SDS011;59335;46.652;21.272;2022-09-12T17:15:52;15.13;;;3.28;;
71513;SDS011;59335;46.652;21.272;2022-09-12T17:18:55;12.70;;;2.60;;
71513;SDS011;59335;46.652;21.272;2022-09-12T17:21:57;15.25;;;2.60;;
71513;SDS011;59335;46.652;21.272;2022-09-12T17:25:00;13.48;;;2.85;;
71513;SDS011;59335;46.652;21.272;2022-09-12T17:28:03;15.63;;;2.57;;
71513;SDS011;59335;46.652;21.272;2022-09-12T17:31:10;12.80;;;2.65;;
71513;SDS011;59335;46.652;21.272;2022-09-12T17:34:14;17.55;;;2.63;;
71513;SDS011;59335;46.652;21.272;2022-09-12T17:37:18;11.65;;;2.60;;
71513;SDS011;59335;46.652;21.272;2022-09-12T17:40:22;13.05;;;2.72;;
71513;SDS011;59335;46.652;21.272;2022-09-12T17:43:45;16.53;;;3.33;;
71513;SDS011;59335;46.652;21.272;2022-09-12T17:46:53;11.07;;;2.75;;
71513;SDS011;59335;46.652;21.272;2022-09-12T17:49:56;11.63;;;3.00;;
71513;SDS011;59335;46.652;21.272;2022-09-12T17:53:19;10.45;;;2.75;;
71513;SDS011;59335;46.652;21.272;2022-09-12T17:56:21;12.80;;;3.00;;
71513;SDS011;59335;46.652;21.272;2022-09-12T17:59:24;11.23;;;2.57;;
71513;SDS011;59335;46.652;21.272;2022-09-12T18:02:27;12.68;;;3.30;;
71513;SDS011;59335;46.652;21.272;2022-09-12T18:05:34;13.23;;;2.80;;
71513;SDS011;59335;46.652;21.272;2022-09-12T18:08:37;12.60;;;3.08;;
71513;SDS011;59335;46.652;21.272;2022-09-12T18:11:39;11.80;;;2.45;;
71513;SDS011;59335;46.652;21.272;2022-09-12T18:14:42;9.17;;;2.57;;
71513;SDS011;59335;46.652;21.272;2022-09-12T18:17:45;12.35;;;3.22;;
71513;SDS011;59335;46.652;21.272;2022-09-12T18:20:48;12.43;;;2.72;;
71513;SDS011;59335;46.652;21.272;2022-09-12T18:23:52;12.90;;;2.78;;
71513;SDS011;59335;46.652;21.272;2022-09-12T18:26:56;9.25;;;2.60;;
71513;SDS011;59335;46.652;21.272;2022-09-12T18:29:59;10.87;;;2.60;;
71513;SDS011;59335;46.652;21.272;2022-09-12T18:33:22;13.07;;;2.70;;
71513;SDS011;59335;46.652;21.272;2022-09-12T18:36:25;11.10;;;2.58;;
71513;SDS011;59335;46.652;21.272;2022-09-12T18:39:29;14.00;;;2.85;;
71513;SDS011;59335;46.652;21.272;2022-09-12T18:42:32;10.13;;;2.72;;
71513;SDS011;59335;46.652;21.272;2022-09-12T18:45:35;10.10;;;2.33;;
71513;SDS011;59335;46.652;21.272;2022-09-12T18:48:38;9.57;;;2.92;;
71513;SDS011;59335;46.652;21.272;2022-09-12T18:51:41;14.35;;;2.92;;
71513;SDS011;59335;46.652;21.272;2022-09-12T18:54:45;10.80;;;2.25;;
71513;SDS011;59335;46.652;21.272;2022-09-12T18:57:48;8.98;;;2.20;;
71513;SDS011;59335;46.652;21.272;2022-09-12T19:00:51;13.17;;;2.50;;
71513;SDS011;59335;46.652;21.272;2022-09-12T19:03:56;6.30;;;1.90;;
71513;SDS011;59335;46.652;21.272;2022-09-12T19:06:59;8.73;;;2.20;;
71513;SDS011;59335;46.652;21.272;2022-09-12T19:10:03;7.00;;;2.50;;
71513;SDS011;59335;46.652;21.272;2022-09-12T19:13:06;11.40;;;2.70;;
71513;SDS011;59335;46.652;21.272;2022-09-12T19:16:10;8.83;;;2.57;;
71513;SDS011;59335;46.652;21.272;2022-09-12T19:19:15;10.10;;;2.63;;
71513;SDS011;59335;46.652;21.272;2022-09-12T19:22:18;14.13;;;2.67;;
71513;SDS011;59335;46.652;21.272;2022-09-12T19:25:21;7.47;;;2.40;;
71513;SDS011;59335;46.652;21.272;2022-09-12T19:28:24;7.45;;;2.13;;
71513;SDS011;59335;46.652;21.272;2022-09-12T19:31:29;8.47;;;2.50;;
71513;SDS011;59335;46.652;21.272;2022-09-12T19:34:33;8.65;;;2.25;;
71513;SDS011;59335;46.652;21.272;2022-09-12T19:37:36;8.85;;;2.42;;
71513;SDS011;59335;46.652;21.272;2022-09-12T19:40:38;12.02;;;2.45;;
71513;SDS011;59335;46.652;21.272;2022-09-12T19:43:41;10.07;;;2.47;;
71513;SDS011;59335;46.652;21.272;2022-09-12T19:46:44;10.77;;;2.57;;
71513;SDS011;59335;46.652;21.272;2022-09-12T19:49:47;8.13;;;2.53;;
71513;SDS011;59335;46.652;21.272;2022-09-12T19:52:51;7.13;;;2.25;;
71513;SDS011;59335;46.652;21.272;2022-09-12T19:55:59;10.43;;;2.53;;
71513;SDS011;59335;46.652;21.272;2022-09-12T19:59:03;8.50;;;2.20;;
71513;SDS011;59335;46.652;21.272;2022-09-12T20:02:06;10.40;;;2.30;;
71513;SDS011;59335;46.652;21.272;2022-09-12T20:05:09;9.65;;;2.30;;
71513;SDS011;59335;46.652;21.272;2022-09-12T20:08:12;11.30;;;2.42;;
71513;SDS011;59335;46.652;21.272;2022-09-12T20:11:16;11.50;;;2.50;;
71513;SDS011;59335;46.652;21.272;2022-09-12T20:14:20;6.55;;;2.20;;
71513;SDS011;59335;46.652;21.272;2022-09-12T20:17:23;8.50;;;2.47;;
71513;SDS011;59335;46.652;21.272;2022-09-12T20:20:26;8.93;;;2.40;;
71513;SDS011;59335;46.652;21.272;2022-09-12T20:23:28;9.45;;;2.30;;
71513;SDS011;59335;46.652;21.272;2022-09-12T20:26:32;6.15;;;2.35;;
71513;SDS011;59335;46.652;21.272;2022-09-12T20:29:35;9.02;;;3.10;;